Time;durP1;ratioP1;P1;durP2;ratioP2;P2;SDS_P1;SDS_P2;PMS_P1;PMS_P2;Temp;Humidity;BMP_temperature;BMP_pressure;BME280_temperature;BME280_humidity;BME280_pressure;Samples;Min_cycle;Max_cycle;Signal;HPM_P1;HPM_P2
2023/03/05 00:01:23;;;;;;;5.38;1.50;;;;;;;2.66;100.00;102056.03;5059173;28;20040;-81
2023/03/05 00:03:53;;;;;;;10.13;2.55;;;;;;;2.63;100.00;102058.47;5057346;28;20048;-81
2023/03/05 00:06:22;;;;;;;8.40;1.75;;;;;;;2.59;100.00;102064.31;5074250;28;20045;-80
2023/03/05 00:08:52;;;;;;;6.32;1.52;;;;;;;2.56;100.00;102063.25;5031521;28;20056;-81
2023/03/05 00:11:20;;;;;;;5.78;1.73;;;;;;;2.51;100.00;102060.38;5087526;28;20911;-81
2023/03/05 00:13:51;;;;;;;8.73;1.60;;;;;;;2.48;100.00;102060.25;5074948;28;20056;-80
2023/03/05 00:16:19;;;;;;;4.85;1.77;;;;;;;2.44;100.00;102053.97;5061673;28;20054;-82
2023/03/05 00:18:47;;;;;;;4.13;1.55;;;;;;;2.42;100.00;102052.06;5072465;28;20062;-82
2023/03/05 00:21:17;;;;;;;10.05;1.40;;;;;;;2.41;100.00;102053.78;5055962;28;20061;-80
2023/03/05 00:23:44;;;;;;;6.43;1.90;;;;;;;2.40;100.00;102061.50;5087514;28;20040;-79
2023/03/05 00:26:12;;;;;;;6.32;1.50;;;;;;;2.41;100.00;102052.91;5008405;28;20055;-81
2023/03/05 00:28:40;;;;;;;8.82;1.98;;;;;;;2.45;100.00;102057.44;5046019;28;20504;-80
2023/03/05 00:31:07;;;;;;;17.85;3.53;;;;;;;2.46;100.00;102052.34;5053448;28;20098;-82
2023/03/05 00:33:34;;;;;;;3.92;1.27;;;;;;;2.47;100.00;102055.81;5056726;28;20512;-82
2023/03/05 00:36:05;;;;;;;4.45;1.40;;;;;;;2.49;100.00;102051.59;5051248;28;20060;-81
2023/03/05 00:38:34;;;;;;;11.93;2.10;;;;;;;2.49;100.00;102047.28;5073302;28;20052;-82
2023/03/05 00:41:03;;;;;;;6.38;1.58;;;;;;;2.49;100.00;102041.19;5021242;28;20044;-81
2023/03/05 00:43:32;;;;;;;11.60;1.80;;;;;;;2.49;100.00;102047.28;5066943;28;20051;-82
2023/03/05 00:45:59;;;;;;;6.72;1.42;;;;;;;2.52;100.00;102044.88;5055988;28;20305;-81
2023/03/05 00:48:26;;;;;;;4.30;2.10;;;;;;;2.54;100.00;102035.44;5082728;28;20051;-82
2023/03/05 00:50:54;;;;;;;7.10;1.58;;;;;;;2.57;100.00;102034.72;5087788;28;20040;-81
2023/03/05 00:53:21;;;;;;;3.50;1.23;;;;;;;2.59;100.00;102037.38;5057681;28;20035;-82
2023/03/05 00:55:50;;;;;;;6.45;1.75;;;;;;;2.58;100.00;102023.50;5078948;28;20048;-80
2023/03/05 00:58:19;;;;;;;5.38;1.23;;;;;;;2.58;100.00;102026.09;5039154;28;20052;-81
2023/03/05 01:00:49;;;;;;;5.97;1.13;;;;;;;2.56;100.00;102019.91;5068638;28;20048;-80
2023/03/05 01:03:17;;;;;;;12.68;2.17;;;;;;;2.54;100.00;102008.53;5038522;28;20036;-81
2023/03/05 01:05:45;;;;;;;6.57;1.23;;;;;;;2.51;100.00;102011.88;5092344;28;20052;-80
2023/03/05 01:08:12;;;;;;;3.92;1.23;;;;;;;2.50;100.00;102014.38;5054953;28;20041;-81
2023/03/05 01:10:39;;;;;;;8.50;1.63;;;;;;;2.48;100.00;102008.19;5071578;28;20505;-80
2023/03/05 01:13:07;;;;;;;5.68;1.05;;;;;;;2.46;100.00;101995.09;5038320;28;20048;-79
2023/03/05 01:15:34;;;;;;;2.70;1.00;;;;;;;2.45;100.00;102005.41;5070737;28;20048;-82
2023/03/05 01:18:01;;;;;;;6.03;2.03;;;;;;;2.42;100.00;102000.03;5046620;28;20048;-80
2023/03/05 01:20:29;;;;;;;5.57;1.52;;;;;;;2.40;100.00;101988.66;5045533;28;20044;-80
2023/03/05 01:22:58;;;;;;;2.70;0.90;;;;;;;2.37;100.00;101991.09;5043786;28;20060;-80
2023/03/05 01:25:25;;;;;;;8.07;1.55;;;;;;;2.37;100.00;101989.38;5078110;28;20036;-80
2023/03/05 01:27:52;;;;;;;2.10;1.10;;;;;;;2.36;100.00;101990.19;5019399;28;20048;-79
2023/03/05 01:30:20;;;;;;;3.22;1.27;;;;;;;2.33;100.00;101985.72;5046191;28;20036;-80
2023/03/05 01:32:47;;;;;;;6.43;1.65;;;;;;;2.30;100.00;101980.34;5075069;28;20051;-79
2023/03/05 01:35:20;;;;;;;2.33;1.10;;;;;;;2.28;100.00;101978.47;5056303;28;20052;-82
2023/03/05 01:37:48;;;;;;;6.80;1.45;;;;;;;2.27;100.00;101969.78;5092397;28;20066;-80
2023/03/05 01:40:24;;;;;;;3.13;1.00;;;;;;;2.27;100.00;101972.38;5089144;28;20048;-82
2023/03/05 01:43:10;;;;;;;4.63;1.17;;;;;;;2.28;100.00;101963.75;5041825;28;20044;-82
2023/03/05 01:46:16;;;;;;;6.82;1.50;;;;;;;2.27;100.00;101964.59;5059557;28;20059;-82
2023/03/05 01:48:49;;;;;;;6.78;1.40;;;;;;;2.28;100.00;101958.56;5054751;28;20067;-82
2023/03/05 01:51:18;;;;;;;6.85;1.50;;;;;;;2.28;100.00;101962.88;5053303;28;20054;-82
2023/03/05 01:53:46;;;;;;;5.47;1.20;;;;;;;2.28;100.00;101953.34;5073932;28;20044;-81
2023/03/05 01:56:15;;;;;;;3.00;1.15;;;;;;;2.28;100.00;101948.16;5057501;28;20059;-82
2023/03/05 01:58:43;;;;;;;4.95;1.10;;;;;;;2.30;100.00;101946.53;5020756;28;20044;-81
2023/03/05 02:01:11;;;;;;;12.27;2.08;;;;;;;2.31;100.00;101944.84;5047055;28;20055;-81
2023/03/05 02:03:40;;;;;;;9.50;1.63;;;;;;;2.30;100.00;101932.63;5058017;28;20056;-82
2023/03/05 02:06:08;;;;;;;7.60;1.52;;;;;;;2.30;100.00;101932.63;5039759;28;20067;-81
2023/03/05 02:08:35;;;;;;;7.05;1.67;;;;;;;2.31;100.00;101927.53;5074661;28;20033;-81
2023/03/05 02:11:03;;;;;;;5.75;1.15;;;;;;;2.29;100.00;101923.94;5056327;28;20047;-82
2023/03/05 02:13:37;;;;;;;5.10;1.30;;;;;;;2.29;100.00;101923.94;5001520;28;20521;-82
2023/03/05 02:16:07;;;;;;;6.15;1.10;;;;;;;2.27;100.00;101929.84;5072448;28;20052;-81
2023/03/05 02:18:35;;;;;;;6.25;1.50;;;;;;;2.22;100.00;101927.03;5054954;28;20106;-82
2023/03/05 02:21:04;;;;;;;12.20;1.80;;;;;;;2.22;100.00;101929.63;5055199;28;20041;-81
2023/03/05 02:23:37;;;;;;;5.93;1.67;;;;;;;2.20;100.00;101930.34;5052051;28;20053;-82
2023/03/05 02:26:08;;;;;;;14.10;1.75;;;;;;;2.17;100.00;101936.25;5081223;28;20051;-82
2023/03/05 02:28:43;;;;;;;6.75;1.20;;;;;;;2.17;100.00;101923.25;5072627;28;20048;-82
2023/03/05 02:31:22;;;;;;;3.05;1.35;;;;;;;2.17;100.00;101920.66;5035017;28;20040;-81
2023/03/05 02:33:52;;;;;;;4.05;1.00;;;;;;;2.18;100.00;101906.88;5054914;28;20048;-81
2023/03/05 02:36:21;;;;;;;8.18;1.85;;;;;;;2.20;100.00;101913.03;5053614;28;20056;-82
2023/03/05 02:38:49;;;;;;;1.17;1.00;;;;;;;2.21;100.00;101899.25;5057972;28;20049;-82
2023/03/05 02:41:16;;;;;;;3.33;0.90;;;;;;;2.21;100.00;101898.31;5070803;28;20049;-82
2023/03/05 02:43:44;;;;;;;3.53;1.30;;;;;;;2.20;100.00;101913.03;5071300;28;20493;-82
2023/03/05 02:46:11;;;;;;;3.10;1.15;;;;;;;2.18;100.00;101901.66;5033473;28;20088;-81
2023/03/05 02:48:39;;;;;;;10.85;1.35;;;;;;;2.14;100.00;101891.91;5042059;28;20491;-82
2023/03/05 02:51:11;;;;;;;3.70;1.40;;;;;;;2.08;100.00;101886.34;5068039;28;20637;-79
2023/03/05 02:53:38;;;;;;;4.70;1.08;;;;;;;2.03;100.00;101890.44;5069992;28;20067;-83
2023/03/05 02:56:06;;;;;;;8.55;1.30;;;;;;;2.00;100.00;101890.25;5035420;28;20041;-81
2023/03/05 02:58:34;;;;;;;1.10;0.98;;;;;;;1.97;100.00;101884.88;5054534;28;20052;-81
2023/03/05 03:01:02;;;;;;;7.00;1.00;;;;;;;1.95;100.00;101877.91;5011309;28;20583;-79
2023/03/05 03:03:30;;;;;;;2.92;1.17;;;;;;;1.93;100.00;101882.13;5027763;28;20080;-80
2023/03/05 03:05:58;;;;;;;5.70;1.30;;;;;;;1.93;100.00;101889.94;5050632;28;20057;-79
2023/03/05 03:08:25;;;;;;;3.88;0.90;;;;;;;1.92;100.00;101887.22;5052861;28;20056;-80
2023/03/05 03:10:55;;;;;;;5.05;1.40;;;;;;;1.91;100.00;101873.34;5085909;28;20040;-80
2023/03/05 03:13:24;;;;;;;2.95;1.20;;;;;;;1.93;100.00;101878.63;5062737;28;20045;-82
2023/03/05 03:16:03;;;;;;;2.85;1.33;;;;;;;1.95;100.00;101880.50;5013809;28;20532;-81
2023/03/05 03:18:30;;;;;;;4.70;1.23;;;;;;;1.95;100.00;101867.50;5074130;28;20115;-82
2023/03/05 03:20:58;;;;;;;5.50;1.15;;;;;;;1.95;100.00;101870.09;5069739;28;20059;-81
2023/03/05 03:23:26;;;;;;;3.55;1.38;;;;;;;1.97;100.00;101861.47;5067072;28;20052;-82
2023/03/05 03:25:54;;;;;;;3.67;1.20;;;;;;;1.95;100.00;101857.09;5061778;28;20048;-81
2023/03/05 03:28:21;;;;;;;2.25;1.13;;;;;;;1.95;100.00;101856.22;5038978;28;20446;-82
2023/03/05 03:30:50;;;;;;;5.38;1.27;;;;;;;1.97;100.00;101853.69;5038845;28;20045;-82
2023/03/05 03:33:17;;;;;;;6.32;1.13;;;;;;;1.94;100.00;101837.09;5070862;28;20048;-82
2023/03/05 03:35:45;;;;;;;3.42;1.10;;;;;;;1.94;100.00;101841.41;5013815;28;20048;-82
2023/03/05 03:38:12;;;;;;;6.82;1.10;;;;;;;1.91;100.00;101841.25;5052115;28;20071;-82
2023/03/05 03:40:41;;;;;;;3.05;1.17;;;;;;;1.89;100.00;101840.25;5072248;28;20047;-82
2023/03/05 03:43:08;;;;;;;2.58;1.00;;;;;;;1.85;100.00;101830.53;5051868;28;20056;-80
2023/03/05 03:45:40;;;;;;;3.38;1.20;;;;;;;1.81;100.00;101818.19;5023017;28;20049;-81
2023/03/05 03:48:08;;;;;;;5.05;1.48;;;;;;;1.81;100.00;101825.97;5070804;28;20052;-80
2023/03/05 03:50:42;;;;;;;3.78;1.30;;;;;;;1.79;100.00;101819.81;5056546;28;20047;-81
2023/03/05 03:53:13;;;;;;;3.88;1.17;;;;;;;1.77;100.00;101822.31;5053805;28;20040;-81
2023/03/05 03:55:49;;;;;;;7.07;1.10;;;;;;;1.77;100.00;101821.44;5039669;28;20775;-82
2023/03/05 03:58:17;;;;;;;1.00;0.88;;;;;;;1.75;100.00;101816.13;5049995;28;20057;-80
2023/03/05 04:00:44;;;;;;;2.50;1.20;;;;;;;1.75;100.00;101817.03;5036303;28;20056;-81
2023/03/05 04:03:11;;;;;;;1.58;0.95;;;;;;;1.77;100.00;101822.31;5024069;28;20052;-81
2023/03/05 04:05:38;;;;;;;6.40;1.10;;;;;;;1.78;100.00;101810.19;5043383;28;20079;-79
2023/03/05 04:08:10;;;;;;;4.13;1.30;;;;;;;1.81;100.00;101808.66;5037683;28;20563;-80
2023/03/05 04:10:40;;;;;;;6.82;1.35;;;;;;;1.82;100.00;101810.47;5057361;28;20413;-81
2023/03/05 04:13:08;;;;;;;1.60;1.15;;;;;;;1.84;100.00;101803.66;5071179;28;20264;-83
2023/03/05 04:15:35;;;;;;;4.07;1.20;;;;;;;1.88;100.00;101799.50;5052230;28;20044;-80
2023/03/05 04:18:03;;;;;;;2.13;1.20;;;;;;;1.88;100.00;101795.19;5015455;28;20413;-79
2023/03/05 04:20:30;;;;;;;1.50;1.10;;;;;;;1.89;100.00;101791.78;5023784;28;20418;-82
2023/03/05 04:22:57;;;;;;;3.92;1.33;;;;;;;1.90;100.00;101785.78;5067253;28;20041;-80
2023/03/05 04:25:25;;;;;;;2.20;1.27;;;;;;;1.94;100.00;101792.91;5070037;28;20567;-79
2023/03/05 04:27:52;;;;;;;3.55;1.15;;;;;;;1.94;100.00;101794.63;5037025;28;20060;-83
2023/03/05 04:30:27;;;;;;;2.03;1.08;;;;;;;1.93;100.00;101783.34;5070243;28;20493;-82
2023/03/05 04:32:54;;;;;;;3.13;0.90;;;;;;;1.91;100.00;101787.56;5017208;28;20048;-82
2023/03/05 04:35:21;;;;;;;6.90;1.75;;;;;;;1.91;100.00;101784.06;5061200;28;20079;-82
2023/03/05 04:37:49;;;;;;;2.72;1.13;;;;;;;1.89;100.00;101781.41;5069866;28;20048;-82
2023/03/05 04:40:17;;;;;;;6.68;1.45;;;;;;;1.88;100.00;101784.78;5034199;28;20056;-82
2023/03/05 04:42:44;;;;;;;8.15;1.50;;;;;;;1.87;100.00;101779.50;5055364;28;20417;-82
2023/03/05 04:45:12;;;;;;;7.78;1.63;;;;;;;1.86;100.00;101775.13;5054524;28;20060;-82
2023/03/05 04:47:39;;;;;;;6.68;2.38;;;;;;;1.85;100.00;101761.25;5039753;28;20044;-81
2023/03/05 04:50:08;;;;;;;3.38;1.20;;;;;;;1.85;100.00;101765.53;5002503;28;20057;-82
2023/03/05 04:52:41;;;;;;;5.32;1.40;;;;;;;1.82;100.00;101776.69;5045973;28;20044;-82
2023/03/05 04:55:10;;;;;;;7.43;1.63;;;;;;;1.81;100.00;101767.09;5054517;28;20055;-82
2023/03/05 04:57:38;;;;;;;2.97;1.20;;;;;;;1.83;100.00;101774.97;5072674;28;20056;-81
2023/03/05 05:00:15;;;;;;;3.42;1.30;;;;;;;1.82;100.00;101771.47;5070551;28;20070;-82
2023/03/05 05:02:44;;;;;;;7.80;1.60;;;;;;;1.83;100.00;101770.66;5062033;28;20040;-81
2023/03/05 05:05:15;;;;;;;7.07;1.50;;;;;;;1.83;100.00;101770.66;5053982;28;20063;-81
2023/03/05 05:07:43;;;;;;;7.70;1.50;;;;;;;1.82;100.00;101766.28;5059019;28;20059;-81
2023/03/05 05:10:14;;;;;;;4.15;0.90;;;;;;;1.81;100.00;101756.69;5036404;28;20709;-80
2023/03/05 05:12:41;;;;;;;0.95;0.80;;;;;;;1.83;100.00;101756.78;5070995;28;20052;-81
2023/03/05 05:15:11;;;;;;;2.15;1.05;;;;;;;1.86;100.00;101755.22;5052970;28;20052;-81
2023/03/05 05:17:39;;;;;;;2.80;1.03;;;;;;;1.89;100.00;101751.88;5053780;28;20055;-81
2023/03/05 05:20:07;;;;;;;3.22;1.20;;;;;;;1.94;100.00;101758.22;5022506;28;20464;-82
2023/03/05 05:22:37;;;;;;;3.22;1.00;;;;;;;1.97;100.00;101757.50;5051531;28;20040;-81
2023/03/05 05:25:05;;;;;;;4.88;1.00;;;;;;;2.00;100.00;101768.06;5065603;28;20483;-80
2023/03/05 05:27:32;;;;;;;1.20;1.10;;;;;;;2.01;100.00;101762.94;5051381;28;20055;-81
2023/03/05 05:30:00;;;;;;;2.28;0.95;;;;;;;2.02;100.00;101766.44;5044716;28;20080;-81
2023/03/05 05:32:27;;;;;;;3.70;0.98;;;;;;;2.00;100.00;101761.16;5043156;28;20056;-81
2023/03/05 05:34:56;;;;;;;2.63;1.00;;;;;;;2.00;100.00;101761.16;5022168;28;20052;-80
2023/03/05 05:37:25;;;;;;;1.15;0.88;;;;;;;2.00;100.00;101758.56;5050019;28;20056;-81
2023/03/05 05:39:52;;;;;;;2.28;0.82;;;;;;;1.99;100.00;101763.69;5054890;28;20049;-80
2023/03/05 05:42:22;;;;;;;1.40;0.80;;;;;;;1.95;100.00;101754.84;5061634;28;20056;-80
2023/03/05 05:44:50;;;;;;;1.63;0.73;;;;;;;1.92;100.00;101749.47;5071847;28;20059;-80
2023/03/05 05:47:17;;;;;;;3.63;1.10;;;;;;;1.90;100.00;101748.50;5052682;28;20052;-82
2023/03/05 05:49:45;;;;;;;3.10;1.02;;;;;;;1.86;100.00;101743.94;5070079;28;20063;-81
2023/03/05 05:52:12;;;;;;;1.08;0.80;;;;;;;1.82;100.00;101752.41;5030903;28;20057;-81
2023/03/05 05:54:40;;;;;;;1.58;1.10;;;;;;;1.76;100.00;101752.97;5055764;28;20047;-81
2023/03/05 05:57:07;;;;;;;2.25;0.98;;;;;;;1.73;100.00;101747.59;5050068;28;20056;-81
2023/03/05 05:59:37;;;;;;;7.00;1.13;;;;;;;1.68;100.00;101751.66;5070967;28;20063;-80
2023/03/05 06:02:06;;;;;;;6.25;1.05;;;;;;;1.63;100.00;101746.22;5051064;28;20059;-81
2023/03/05 06:04:35;;;;;;;3.65;1.30;;;;;;;1.60;100.00;101739.97;5069841;28;20048;-81
2023/03/05 06:07:02;;;;;;;3.53;1.10;;;;;;;1.58;100.00;101749.38;5028821;28;20044;-81
2023/03/05 06:09:30;;;;;;;1.33;0.90;;;;;;;1.55;100.00;101747.47;5062722;28;20052;-80
2023/03/05 06:11:58;;;;;;;3.85;1.17;;;;;;;1.52;100.00;101737.84;5082784;28;20063;-80
2023/03/05 06:14:25;;;;;;;1.83;1.00;;;;;;;1.52;100.00;101735.25;5066743;28;20044;-81
2023/03/05 06:16:53;;;;;;;5.95;1.80;;;;;;;1.50;100.00;101738.56;5055274;28;20408;-81
2023/03/05 06:19:20;;;;;;;1.55;0.80;;;;;;;1.48;100.00;101750.59;5057399;28;20047;-81
2023/03/05 06:21:48;;;;;;;6.43;1.38;;;;;;;1.46;100.00;101745.31;5086614;28;20412;-80
2023/03/05 06:24:15;;;;;;;3.63;1.10;;;;;;;1.47;100.00;101746.19;5057622;28;20950;-81
2023/03/05 06:26:42;;;;;;;5.13;1.27;;;;;;;1.47;100.00;101744.47;5063290;28;20056;-81
2023/03/05 06:29:09;;;;;;;5.00;1.40;;;;;;;1.46;100.00;101747.00;5057400;28;20476;-81
2023/03/05 06:31:38;;;;;;;3.33;1.00;;;;;;;1.46;100.00;101744.41;5090987;28;20052;-81
2023/03/05 06:34:06;;;;;;;4.63;1.30;;;;;;;1.48;100.00;101737.59;5052611;28;20063;-80
2023/03/05 06:36:33;;;;;;;5.13;1.08;;;;;;;1.49;100.00;101736.78;5074417;28;20071;-80
2023/03/05 06:39:00;;;;;;;8.23;1.30;;;;;;;1.51;100.00;101741.25;5017719;28;20040;-79
2023/03/05 06:41:30;;;;;;;4.10;1.25;;;;;;;1.54;100.00;101741.41;5041209;28;20072;-80
2023/03/05 06:44:02;;;;;;;7.13;1.20;;;;;;;1.59;100.00;101745.94;5066030;28;20512;-80
2023/03/05 06:46:36;;;;;;;4.20;1.50;;;;;;;1.62;100.00;101743.53;5073098;28;20048;-81
2023/03/05 06:49:04;;;;;;;4.03;1.25;;;;;;;1.64;100.00;101739.31;5053549;28;20049;-80
2023/03/05 06:51:34;;;;;;;4.40;1.48;;;;;;;1.65;100.00;101736.78;5036932;28;20052;-80
2023/03/05 06:54:05;;;;;;;5.07;1.55;;;;;;;1.67;100.00;101729.97;5017780;28;20076;-81
2023/03/05 06:56:35;;;;;;;8.35;1.30;;;;;;;1.71;100.00;101733.63;5064286;28;20389;-81
2023/03/05 06:59:03;;;;;;;14.03;2.27;;;;;;;1.75;100.00;101732.97;5049679;28;20533;-80
2023/03/05 07:01:32;;;;;;;8.77;1.38;;;;;;;1.79;100.00;101723.63;5065084;28;20652;-81
2023/03/05 07:04:01;;;;;;;6.50;2.08;;;;;;;1.83;100.00;101716.06;5062946;28;20056;-80
2023/03/05 07:06:34;;;;;;;5.95;1.40;;;;;;;1.90;100.00;101720.78;5026988;28;20052;-80
2023/03/05 07:09:03;;;;;;;3.95;1.77;;;;;;;2.00;100.00;101710.88;5077046;28;20063;-81
2023/03/05 07:11:31;;;;;;;8.50;1.90;;;;;;;2.08;100.00;101722.53;4992425;28;20060;-80
2023/03/05 07:13:58;;;;;;;3.15;1.23;;;;;;;2.14;100.00;101715.09;5038743;28;20045;-81
2023/03/05 07:16:29;;;;;;;8.27;1.88;;;;;;;2.19;100.00;101715.31;5059629;28;20067;-79
2023/03/05 07:18:59;;;;;;;4.80;1.25;;;;;;;2.22;100.00;101721.56;5060149;28;20064;-80
2023/03/05 07:21:29;;;;;;;7.05;2.03;;;;;;;2.24;100.00;101719.03;5064676;28;20071;-81
2023/03/05 07:23:59;;;;;;;6.20;1.70;;;;;;;2.26;100.00;101723.50;5058312;28;20044;-79
2023/03/05 07:26:27;;;;;;;3.30;1.20;;;;;;;2.28;100.00;101723.59;5023819;28;20499;-80
2023/03/05 07:28:55;;;;;;;5.72;1.40;;;;;;;2.32;100.00;101718.59;5054348;28;20048;-81
2023/03/05 07:31:25;;;;;;;3.88;1.38;;;;;;;2.35;100.00;101710.06;5050779;28;20409;-82
2023/03/05 07:33:53;;;;;;;8.98;1.30;;;;;;;2.39;100.00;101712.00;5058662;28;20033;-82
2023/03/05 07:36:21;;;;;;;5.80;1.63;;;;;;;2.45;100.00;101711.44;5043476;28;20150;-82
2023/03/05 07:38:48;;;;;;;6.38;1.30;;;;;;;2.51;100.00;101714.31;5043780;28;20410;-82
2023/03/05 07:41:22;;;;;;;7.72;2.17;;;;;;;2.58;100.00;101708.63;5016934;28;20063;-82
2023/03/05 07:43:52;;;;;;;5.30;1.90;;;;;;;2.67;100.00;101709.06;5045287;28;21473;-82
2023/03/05 07:46:25;;;;;;;5.82;1.38;;;;;;;2.76;100.00;101703.44;5053115;28;20543;-82
2023/03/05 07:48:54;;;;;;;2.33;1.20;;;;;;;2.85;100.00;101703.84;5057056;28;20075;-81
2023/03/05 07:51:22;;;;;;;6.70;2.15;;;;;;;2.96;100.00;101701.78;5047392;28;20653;-81
2023/03/05 07:53:51;;;;;;;3.53;1.23;;;;;;;3.09;100.00;101703.25;5061485;28;20041;-80
2023/03/05 07:56:30;;;;;;;6.18;1.50;;;;;;;3.23;100.00;101701.28;5008408;28;20059;-80
2023/03/05 07:59:00;;;;;;;5.18;1.20;;;;;;;3.35;100.00;101699.25;5051543;28;20505;-80
2023/03/05 08:01:29;;;;;;;11.05;1.80;;;;;;;3.50;100.00;101691.25;5052714;28;20051;-80
2023/03/05 08:03:56;;;;;;;5.00;1.10;;;;;;;3.67;100.00;101692.03;5042736;28;20049;-80
2023/03/05 08:06:23;;;;;;;7.18;1.13;;;;;;;3.91;100.00;101686.97;5040850;28;20052;-80
2023/03/05 08:08:51;;;;;;;6.28;1.58;;;;;;;4.17;100.00;101682.91;5036215;28;20056;-80
2023/03/05 08:11:18;;;;;;;5.18;1.73;;;;;;;4.46;100.00;101683.22;5042490;28;20386;-81
2023/03/05 08:13:45;;;;;;;4.18;1.42;;;;;;;4.84;100.00;101684.78;5001120;28;20052;-80
2023/03/05 08:16:16;;;;;;;6.25;1.45;;;;;;;5.18;100.00;101687.81;5051494;28;20060;-80
2023/03/05 08:18:44;;;;;;;4.35;1.83;;;;;;;5.49;100.00;101683.78;5057247;28;20051;-80
2023/03/05 08:21:28;;;;;;;3.15;1.20;;;;;;;5.76;100.00;101684.78;5030820;28;20053;-83
2023/03/05 08:23:56;;;;;;;4.00;1.40;;;;;;;5.99;100.00;101682.13;5063868;28;20112;-80
2023/03/05 08:26:26;;;;;;;4.65;1.30;;;;;;;6.09;100.00;101665.00;5021601;28;20041;-79
2023/03/05 08:28:54;;;;;;;4.53;1.48;;;;;;;6.04;100.00;101668.38;5022221;28;20064;-80
2023/03/05 08:31:24;;;;;;;4.10;1.45;;;;;;;5.95;100.00;101673.28;5018438;28;20053;-80
2023/03/05 08:33:54;;;;;;;2.22;1.08;;;;;;;5.84;100.00;101669.34;5057334;28;20048;-80
2023/03/05 08:36:21;;;;;;;3.85;0.82;;;;;;;5.83;100.00;101676.31;5068831;28;20408;-80
2023/03/05 08:38:50;;;;;;;2.00;0.80;;;;;;;5.82;100.00;101677.19;5051150;28;21059;-79
2023/03/05 08:41:18;;;;;;;3.53;1.13;;;;;;;5.85;100.00;101668.53;5059031;28;20052;-80
2023/03/05 08:43:45;;;;;;;4.07;1.00;;;;;;;5.81;100.00;101664.91;4989542;28;20478;-80
2023/03/05 08:46:15;;;;;;;2.55;1.10;;;;;;;5.71;100.00;101668.06;5031174;28;20057;-80
2023/03/05 08:48:42;;;;;;;2.70;1.00;;;;;;;5.60;100.00;101664.16;5053966;28;20436;-80
2023/03/05 08:51:16;;;;;;;2.13;0.85;;;;;;;5.54;100.00;101661.28;5054000;28;20060;-80
2023/03/05 08:53:45;;;;;;;3.33;0.88;;;;;;;5.44;100.00;101657.44;5054843;28;20052;-80
2023/03/05 08:56:13;;;;;;;3.35;1.40;;;;;;;5.37;100.00;101648.50;5059104;28;20044;-80
2023/03/05 08:58:43;;;;;;;6.72;1.38;;;;;;;5.33;100.00;101653.53;5026407;28;20071;-80
2023/03/05 09:01:11;;;;;;;8.05;1.60;;;;;;;5.33;100.00;101661.38;5028920;28;20052;-79
2023/03/05 09:03:39;;;;;;;10.25;1.20;;;;;;;5.42;100.00;101646.94;5052265;28;20075;-81
2023/03/05 09:06:09;;;;;;;5.85;1.10;;;;;;;5.54;100.00;101641.28;5061828;28;20052;-80
2023/03/05 09:08:37;;;;;;;9.68;1.50;;;;;;;5.59;100.00;101652.78;5048897;28;20048;-81
2023/03/05 09:11:07;;;;;;;3.22;0.90;;;;;;;5.65;100.00;101639.94;5063058;28;20044;-81
2023/03/05 09:13:35;;;;;;;2.67;1.02;;;;;;;5.71;100.00;101640.97;5037422;28;20509;-82
2023/03/05 09:16:05;;;;;;;3.10;1.55;;;;;;;5.70;100.00;101642.72;5054830;28;20685;-82
2023/03/05 09:18:35;;;;;;;4.47;1.02;;;;;;;5.71;100.00;101639.28;5049603;28;20048;-82
2023/03/05 09:21:04;;;;;;;5.88;1.45;;;;;;;5.66;100.00;101639.09;5065835;28;20075;-82
2023/03/05 09:23:32;;;;;;;4.93;1.30;;;;;;;5.65;100.00;101631.19;5016323;28;20060;-82
2023/03/05 09:25:59;;;;;;;4.65;1.35;;;;;;;5.65;100.00;101642.56;5069059;28;20060;-82
2023/03/05 09:28:26;;;;;;;4.10;1.30;;;;;;;5.55;100.00;101632.59;5023746;28;20409;-81
2023/03/05 09:30:54;;;;;;;2.47;0.82;;;;;;;5.39;100.00;101639.00;5029295;28;20048;-82
2023/03/05 09:33:21;;;;;;;3.30;1.23;;;;;;;5.32;100.00;101628.25;5019999;28;20049;-81
2023/03/05 09:35:48;;;;;;;3.83;1.25;;;;;;;5.28;100.00;101624.66;5043109;28;20059;-82
2023/03/05 09:38:17;;;;;;;2.47;1.20;;;;;;;5.26;100.00;101621.09;5055415;28;20083;-81
2023/03/05 09:40:57;;;;;;;2.85;1.02;;;;;;;5.27;100.00;101625.47;5062138;28;20059;-81
2023/03/05 09:44:01;;;;;;;3.58;1.00;;;;;;;5.26;100.00;101623.69;5044608;28;20059;-81
2023/03/05 09:46:47;;;;;;;4.50;1.48;;;;;;;5.26;100.00;101623.69;5067881;28;20060;-81
2023/03/05 09:49:46;;;;;;;5.00;1.08;;;;;;;5.32;100.00;101618.69;5060738;28;20060;-82
2023/03/05 09:52:21;;;;;;;2.13;1.30;;;;;;;5.41;100.00;101621.66;5055414;28;20045;-82
2023/03/05 09:54:55;;;;;;;3.25;0.90;;;;;;;5.49;100.00;101623.66;5054057;28;20059;-83
2023/03/05 09:57:41;;;;;;;6.05;1.42;;;;;;;5.55;100.00;101622.13;5054613;28;20045;-82
2023/03/05 10:00:20;;;;;;;5.13;0.95;;;;;;;5.61;100.00;101618.84;5046171;28;20497;-81
2023/03/05 10:02:54;;;;;;;2.17;0.85;;;;;;;5.62;100.00;101616.31;5046036;28;20361;-82
2023/03/05 10:05:29;;;;;;;5.88;1.20;;;;;;;5.67;100.00;101613.84;5062695;28;20411;-83
2023/03/05 10:08:02;;;;;;;7.25;1.60;;;;;;;5.70;100.00;101611.34;5049680;28;20052;-82
2023/03/05 10:10:51;;;;;;;5.35;1.23;;;;;;;5.74;100.00;101610.59;5066781;28;20041;-83
2023/03/05 10:13:24;;;;;;;6.38;1.60;;;;;;;5.76;100.00;101608.94;5065633;28;20048;-83
2023/03/05 10:15:57;;;;;;;4.97;1.40;;;;;;;5.74;100.00;101601.88;5049983;28;20056;-81
2023/03/05 10:18:31;;;;;;;5.75;1.38;;;;;;;5.78;100.00;101606.38;5071908;28;20044;-82
2023/03/05 10:21:03;;;;;;;6.75;1.30;;;;;;;5.90;100.00;101600.66;5056932;28;20063;-82
2023/03/05 10:23:37;;;;;;;5.28;1.35;;;;;;;6.01;100.00;101589.78;5070447;28;20053;-80
2023/03/05 10:26:55;;;;;;;3.53;0.98;;;;;;;6.06;100.00;101595.16;5062194;28;20040;-83
2023/03/05 10:29:57;;;;;;;7.13;2.03;;;;;;;6.11;100.00;101588.38;5037328;28;20075;-84
2023/03/05 10:32:40;;;;;;;2.95;1.10;;;;;;;6.12;100.00;101581.41;5033324;28;20049;-85
2023/03/05 10:35:11;;;;;;;6.13;1.95;;;;;;;6.12;100.00;101590.13;5071310;28;20052;-82
2023/03/05 10:37:54;;;;;;;2.33;0.90;;;;;;;6.08;100.00;101585.63;5077690;28;20056;-82
2023/03/05 10:40:25;;;;;;;5.05;1.30;;;;;;;5.97;100.00;101581.78;5052319;28;20052;-82
2023/03/05 10:43:11;;;;;;;;;;;;;;;5.92;100.00;101578.09;5053855;28;20048;-82
2023/03/05 10:45:48;;;;;;;4.85;1.17;;;;;;;5.94;100.00;101579.03;5013555;28;19928;-82
2023/03/05 10:48:41;;;;;;;3.30;1.10;;;;;;;6.03;100.00;101574.13;5066406;28;20055;-81
2023/03/05 10:51:23;;;;;;;10.98;1.90;;;;;;;6.13;100.00;101568.38;5058790;28;20058;-81
2023/03/05 10:54:00;;;;;;;4.20;1.40;;;;;;;6.17;100.00;101572.84;5067656;28;20044;-82
2023/03/05 10:56:30;;;;;;;5.75;1.30;;;;;;;6.17;100.00;101564.13;5074959;28;20048;-81
2023/03/05 10:58:57;;;;;;;1.67;1.10;;;;;;;6.24;100.00;101556.53;5073992;28;20040;-82
2023/03/05 11:01:32;;;;;;;4.00;1.50;;;;;;;6.38;100.00;101543.84;5035365;28;20047;-82
2023/03/05 11:04:02;;;;;;;3.58;1.02;;;;;;;6.51;100.00;101545.13;5068224;28;20040;-82
2023/03/05 11:06:41;;;;;;;6.68;1.30;;;;;;;6.56;100.00;101540.03;5050136;28;20044;-81
2023/03/05 11:09:23;;;;;;;5.05;0.90;;;;;;;6.60;100.00;101534.06;5066923;28;20044;-82
2023/03/05 11:12:19;;;;;;;5.03;1.15;;;;;;;6.70;100.00;101525.63;5088463;28;20051;-82
2023/03/05 11:15:21;;;;;;;5.18;1.15;;;;;;;6.81;100.00;101526.84;5076595;28;20044;-81
2023/03/05 11:18:15;;;;;;;5.10;1.05;;;;;;;6.81;100.00;101523.34;5029156;28;20087;-82
2023/03/05 11:20:44;;;;;;;8.52;1.05;;;;;;;6.71;100.00;101526.50;5063005;28;20095;-81
2023/03/05 11:23:13;;;;;;;2.70;1.13;;;;;;;6.62;100.00;101521.91;5084832;28;20055;-80
2023/03/05 11:26:11;;;;;;;3.17;1.30;;;;;;;6.53;100.00;101524.25;5054803;28;20044;-81
2023/03/05 11:28:53;;;;;;;7.55;1.23;;;;;;;6.54;100.00;101516.44;5071754;28;20235;-82
2023/03/05 11:31:24;;;;;;;3.03;1.30;;;;;;;6.60;100.00;101515.75;5042987;28;20048;-80
2023/03/05 11:33:58;;;;;;;5.00;1.38;;;;;;;6.52;100.00;101512.88;5060847;28;20515;-81
2023/03/05 11:36:25;;;;;;;4.10;1.27;;;;;;;6.48;100.00;101523.19;5070001;28;20090;-80
2023/03/05 11:38:54;;;;;;;4.75;1.13;;;;;;;6.41;100.00;101514.28;5071455;28;20365;-81
2023/03/05 11:41:28;;;;;;;3.20;0.93;;;;;;;6.38;100.00;101509.81;5051381;28;20059;-81